sensor_id;sensor_type;location;lat;lon;timestamp;P1;durP1;ratioP1;P2;durP2;ratioP2
74833;SDS011;63361;52.384;20.930;2024-03-25T00:01:02;24.37;;;11.47;;
74833;SDS011;63361;52.384;20.930;2024-03-25T00:03:28;20.97;;;10.37;;
74833;SDS011;63361;52.384;20.930;2024-03-25T00:05:53;22.93;;;10.57;;
74833;SDS011;63361;52.384;20.930;2024-03-25T00:08:18;18.60;;;9.97;;
74833;SDS011;63361;52.384;20.930;2024-03-25T00:10:44;18.77;;;9.83;;
74833;SDS011;63361;52.384;20.930;2024-03-25T00:13:09;16.20;;;7.97;;
74833;SDS011;63361;52.384;20.930;2024-03-25T00:15:35;18.92;;;8.35;;
74833;SDS011;63361;52.384;20.930;2024-03-25T00:18:02;17.10;;;8.50;;
74833;SDS011;63361;52.384;20.930;2024-03-25T00:20:28;14.03;;;7.87;;
74833;SDS011;63361;52.384;20.930;2024-03-25T00:22:54;17.80;;;9.02;;
74833;SDS011;63361;52.384;20.930;2024-03-25T00:25:19;15.80;;;8.13;;
74833;SDS011;63361;52.384;20.930;2024-03-25T00:27:45;16.97;;;8.50;;
74833;SDS011;63361;52.384;20.930;2024-03-25T00:30:10;16.27;;;8.20;;
74833;SDS011;63361;52.384;20.930;2024-03-25T00:32:36;20.13;;;9.63;;
74833;SDS011;63361;52.384;20.930;2024-03-25T00:35:02;18.67;;;9.63;;
74833;SDS011;63361;52.384;20.930;2024-03-25T00:37:27;15.90;;;8.23;;
74833;SDS011;63361;52.384;20.930;2024-03-25T00:39:53;15.57;;;7.87;;
74833;SDS011;63361;52.384;20.930;2024-03-25T00:42:19;22.65;;;10.52;;
74833;SDS011;63361;52.384;20.930;2024-03-25T00:44:44;17.50;;;8.63;;
74833;SDS011;63361;52.384;20.930;2024-03-25T00:47:09;17.37;;;9.33;;
74833;SDS011;63361;52.384;20.930;2024-03-25T00:49:35;15.90;;;8.33;;
74833;SDS011;63361;52.384;20.930;2024-03-25T00:52:01;17.98;;;8.85;;
74833;SDS011;63361;52.384;20.930;2024-03-25T00:54:27;15.52;;;7.82;;
74833;SDS011;63361;52.384;20.930;2024-03-25T00:56:52;14.57;;;7.10;;
74833;SDS011;63361;52.384;20.930;2024-03-25T00:59:18;14.77;;;7.73;;
74833;SDS011;63361;52.384;20.930;2024-03-25T01:01:44;18.73;;;9.32;;
74833;SDS011;63361;52.384;20.930;2024-03-25T01:04:09;17.70;;;8.40;;
74833;SDS011;63361;52.384;20.930;2024-03-25T01:06:34;16.40;;;7.47;;
74833;SDS011;63361;52.384;20.930;2024-03-25T01:09:00;17.77;;;8.10;;
74833;SDS011;63361;52.384;20.930;2024-03-25T01:11:25;18.42;;;8.52;;
74833;SDS011;63361;52.384;20.930;2024-03-25T01:13:51;18.23;;;7.83;;
74833;SDS011;63361;52.384;20.930;2024-03-25T01:16:16;13.60;;;6.63;;
74833;SDS011;63361;52.384;20.930;2024-03-25T01:18:42;14.13;;;5.97;;
74833;SDS011;63361;52.384;20.930;2024-03-25T01:21:08;13.02;;;5.97;;
74833;SDS011;63361;52.384;20.930;2024-03-25T01:23:33;13.30;;;6.23;;
74833;SDS011;63361;52.384;20.930;2024-03-25T01:25:58;14.70;;;6.83;;
74833;SDS011;63361;52.384;20.930;2024-03-25T01:28:24;15.05;;;6.60;;
74833;SDS011;63361;52.384;20.930;2024-03-25T01:30:49;15.93;;;7.20;;
74833;SDS011;63361;52.384;20.930;2024-03-25T01:33:15;13.63;;;6.47;;
74833;SDS011;63361;52.384;20.930;2024-03-25T01:35:40;14.37;;;7.03;;
74833;SDS011;63361;52.384;20.930;2024-03-25T01:38:05;12.38;;;5.65;;
74833;SDS011;63361;52.384;20.930;2024-03-25T01:40:31;15.03;;;6.80;;
74833;SDS011;63361;52.384;20.930;2024-03-25T01:45:23;16.52;;;7.68;;
74833;SDS011;63361;52.384;20.930;2024-03-25T01:47:53;16.13;;;8.00;;
74833;SDS011;63361;52.384;20.930;2024-03-25T01:50:19;16.17;;;7.85;;
74833;SDS011;63361;52.384;20.930;2024-03-25T01:52:46;17.40;;;7.77;;
74833;SDS011;63361;52.384;20.930;2024-03-25T01:55:13;14.10;;;7.07;;
74833;SDS011;63361;52.384;20.930;2024-03-25T01:57:43;14.13;;;6.68;;
74833;SDS011;63361;52.384;20.930;2024-03-25T02:00:10;14.27;;;6.68;;
74833;SDS011;63361;52.384;20.930;2024-03-25T02:02:36;17.00;;;7.27;;
74833;SDS011;63361;52.384;20.930;2024-03-25T02:05:06;16.05;;;6.85;;
74833;SDS011;63361;52.384;20.930;2024-03-25T02:07:33;17.17;;;7.72;;
74833;SDS011;63361;52.384;20.930;2024-03-25T02:10:01;15.48;;;7.57;;
74833;SDS011;63361;52.384;20.930;2024-03-25T02:12:28;15.55;;;7.28;;
74833;SDS011;63361;52.384;20.930;2024-03-25T02:14:55;15.30;;;7.77;;
74833;SDS011;63361;52.384;20.930;2024-03-25T02:17:20;14.57;;;7.70;;
74833;SDS011;63361;52.384;20.930;2024-03-25T02:19:45;15.60;;;7.43;;
74833;SDS011;63361;52.384;20.930;2024-03-25T02:22:11;15.80;;;7.70;;
74833;SDS011;63361;52.384;20.930;2024-03-25T02:24:36;16.97;;;7.50;;
74833;SDS011;63361;52.384;20.930;2024-03-25T02:27:03;17.98;;;7.60;;
74833;SDS011;63361;52.384;20.930;2024-03-25T02:29:33;15.65;;;7.78;;
74833;SDS011;63361;52.384;20.930;2024-03-25T02:32:01;20.10;;;8.60;;
74833;SDS011;63361;52.384;20.930;2024-03-25T02:34:26;19.05;;;8.10;;
74833;SDS011;63361;52.384;20.930;2024-03-25T02:36:52;14.33;;;7.53;;
74833;SDS011;63361;52.384;20.930;2024-03-25T02:39:18;16.80;;;8.55;;
74833;SDS011;63361;52.384;20.930;2024-03-25T02:41:44;21.20;;;9.45;;
74833;SDS011;63361;52.384;20.930;2024-03-25T02:44:11;19.20;;;8.05;;
74833;SDS011;63361;52.384;20.930;2024-03-25T02:46:38;16.43;;;9.13;;
74833;SDS011;63361;52.384;20.930;2024-03-25T02:49:05;15.45;;;7.65;;
74833;SDS011;63361;52.384;20.930;2024-03-25T02:51:30;17.93;;;7.57;;
74833;SDS011;63361;52.384;20.930;2024-03-25T02:53:56;15.17;;;7.40;;
74833;SDS011;63361;52.384;20.930;2024-03-25T02:56:21;22.57;;;9.37;;
74833;SDS011;63361;52.384;20.930;2024-03-25T02:58:46;22.67;;;9.83;;
74833;SDS011;63361;52.384;20.930;2024-03-25T03:01:12;20.97;;;10.60;;
74833;SDS011;63361;52.384;20.930;2024-03-25T03:03:37;18.40;;;8.48;;
74833;SDS011;63361;52.384;20.930;2024-03-25T03:06:02;14.53;;;7.30;;
74833;SDS011;63361;52.384;20.930;2024-03-25T03:08:28;15.87;;;6.57;;
74833;SDS011;63361;52.384;20.930;2024-03-25T03:10:53;14.73;;;6.50;;
74833;SDS011;63361;52.384;20.930;2024-03-25T03:13:19;12.77;;;6.93;;
74833;SDS011;63361;52.384;20.930;2024-03-25T03:15:44;16.27;;;7.27;;
74833;SDS011;63361;52.384;20.930;2024-03-25T03:18:10;17.25;;;7.35;;
74833;SDS011;63361;52.384;20.930;2024-03-25T03:20:36;15.27;;;8.20;;
74833;SDS011;63361;52.384;20.930;2024-03-25T03:23:01;16.65;;;7.35;;
74833;SDS011;63361;52.384;20.930;2024-03-25T03:25:27;17.30;;;7.77;;
74833;SDS011;63361;52.384;20.930;2024-03-25T03:27:54;18.10;;;8.30;;
74833;SDS011;63361;52.384;20.930;2024-03-25T03:30:20;22.27;;;7.87;;
74833;SDS011;63361;52.384;20.930;2024-03-25T03:32:45;22.10;;;10.03;;
74833;SDS011;63361;52.384;20.930;2024-03-25T03:35:10;19.27;;;8.82;;
74833;SDS011;63361;52.384;20.930;2024-03-25T03:37:36;22.80;;;10.03;;
74833;SDS011;63361;52.384;20.930;2024-03-25T03:40:01;21.13;;;9.30;;
74833;SDS011;63361;52.384;20.930;2024-03-25T03:42:26;18.33;;;9.17;;
74833;SDS011;63361;52.384;20.930;2024-03-25T03:44:52;15.00;;;6.70;;
74833;SDS011;63361;52.384;20.930;2024-03-25T03:47:17;14.27;;;7.63;;
74833;SDS011;63361;52.384;20.930;2024-03-25T03:49:42;16.73;;;8.27;;
74833;SDS011;63361;52.384;20.930;2024-03-25T03:52:08;16.43;;;8.63;;
74833;SDS011;63361;52.384;20.930;2024-03-25T03:54:33;18.93;;;8.63;;
74833;SDS011;63361;52.384;20.930;2024-03-25T03:56:58;20.10;;;8.50;;
74833;SDS011;63361;52.384;20.930;2024-03-25T03:59:24;18.23;;;8.87;;
74833;SDS011;63361;52.384;20.930;2024-03-25T04:01:49;18.40;;;9.03;;
74833;SDS011;63361;52.384;20.930;2024-03-25T04:04:14;17.80;;;8.60;;
74833;SDS011;63361;52.384;20.930;2024-03-25T04:06:40;18.73;;;8.20;;
74833;SDS011;63361;52.384;20.930;2024-03-25T04:09:06;14.73;;;9.07;;
74833;SDS011;63361;52.384;20.930;2024-03-25T04:11:35;21.15;;;9.75;;
74833;SDS011;63361;52.384;20.930;2024-03-25T04:14:01;17.70;;;8.68;;
74833;SDS011;63361;52.384;20.930;2024-03-25T04:16:26;18.10;;;8.03;;
74833;SDS011;63361;52.384;20.930;2024-03-25T04:18:51;21.03;;;8.40;;
74833;SDS011;63361;52.384;20.930;2024-03-25T04:21:17;19.97;;;8.50;;
74833;SDS011;63361;52.384;20.930;2024-03-25T04:23:42;22.67;;;9.77;;
74833;SDS011;63361;52.384;20.930;2024-03-25T04:26:09;25.73;;;9.20;;
74833;SDS011;63361;52.384;20.930;2024-03-25T04:28:35;17.70;;;8.17;;
74833;SDS011;63361;52.384;20.930;2024-03-25T04:31:00;23.88;;;10.35;;
74833;SDS011;63361;52.384;20.930;2024-03-25T04:33:26;23.67;;;10.60;;
74833;SDS011;63361;52.384;20.930;2024-03-25T04:35:51;21.83;;;11.00;;
74833;SDS011;63361;52.384;20.930;2024-03-25T04:38:16;28.80;;;12.43;;
74833;SDS011;63361;52.384;20.930;2024-03-25T04:40:42;24.05;;;12.00;;
74833;SDS011;63361;52.384;20.930;2024-03-25T04:43:09;26.13;;;11.63;;
74833;SDS011;63361;52.384;20.930;2024-03-25T04:45:34;24.60;;;11.30;;
74833;SDS011;63361;52.384;20.930;2024-03-25T04:47:59;26.57;;;12.07;;
74833;SDS011;63361;52.384;20.930;2024-03-25T04:50:25;22.80;;;11.50;;
74833;SDS011;63361;52.384;20.930;2024-03-25T04:52:51;29.38;;;13.02;;
74833;SDS011;63361;52.384;20.930;2024-03-25T04:55:16;28.67;;;13.43;;
74833;SDS011;63361;52.384;20.930;2024-03-25T04:57:42;26.10;;;13.20;;
74833;SDS011;63361;52.384;20.930;2024-03-25T05:00:07;25.43;;;12.70;;
74833;SDS011;63361;52.384;20.930;2024-03-25T05:02:36;28.37;;;12.97;;
74833;SDS011;63361;52.384;20.930;2024-03-25T05:05:01;27.10;;;12.18;;
74833;SDS011;63361;52.384;20.930;2024-03-25T05:07:27;27.25;;;13.43;;
74833;SDS011;63361;52.384;20.930;2024-03-25T05:09:53;24.33;;;11.73;;
74833;SDS011;63361;52.384;20.930;2024-03-25T05:12:18;21.60;;;11.63;;
74833;SDS011;63361;52.384;20.930;2024-03-25T05:14:43;22.67;;;12.37;;
74833;SDS011;63361;52.384;20.930;2024-03-25T05:17:09;24.53;;;12.43;;
74833;SDS011;63361;52.384;20.930;2024-03-25T05:19:34;23.90;;;12.00;;
74833;SDS011;63361;52.384;20.930;2024-03-25T05:21:59;25.58;;;11.90;;
74833;SDS011;63361;52.384;20.930;2024-03-25T05:24:25;23.80;;;11.40;;
74833;SDS011;63361;52.384;20.930;2024-03-25T05:26:53;27.95;;;12.00;;
74833;SDS011;63361;52.384;20.930;2024-03-25T05:29:18;24.70;;;11.67;;
74833;SDS011;63361;52.384;20.930;2024-03-25T05:31:55;24.33;;;12.40;;
74833;SDS011;63361;52.384;20.930;2024-03-25T05:34:22;25.00;;;12.05;;
74833;SDS011;63361;52.384;20.930;2024-03-25T05:36:48;22.65;;;11.07;;
74833;SDS011;63361;52.384;20.930;2024-03-25T05:39:14;21.40;;;10.67;;
74833;SDS011;63361;52.384;20.930;2024-03-25T05:41:39;23.33;;;10.83;;
74833;SDS011;63361;52.384;20.930;2024-03-25T05:44:04;24.47;;;12.40;;
74833;SDS011;63361;52.384;20.930;2024-03-25T05:46:30;25.63;;;11.70;;
74833;SDS011;63361;52.384;20.930;2024-03-25T05:48:56;19.67;;;9.47;;
74833;SDS011;63361;52.384;20.930;2024-03-25T05:51:21;18.83;;;10.13;;
74833;SDS011;63361;52.384;20.930;2024-03-25T05:53:46;19.40;;;9.63;;
74833;SDS011;63361;52.384;20.930;2024-03-25T05:56:12;21.23;;;10.60;;
74833;SDS011;63361;52.384;20.930;2024-03-25T05:58:37;18.47;;;9.67;;
74833;SDS011;63361;52.384;20.930;2024-03-25T06:01:02;18.67;;;9.70;;
74833;SDS011;63361;52.384;20.930;2024-03-25T06:03:29;18.55;;;9.52;;
74833;SDS011;63361;52.384;20.930;2024-03-25T06:05:55;24.45;;;9.57;;
74833;SDS011;63361;52.384;20.930;2024-03-25T06:08:21;20.07;;;10.47;;
74833;SDS011;63361;52.384;20.930;2024-03-25T06:10:50;21.88;;;9.55;;
74833;SDS011;63361;52.384;20.930;2024-03-25T06:13:16;19.73;;;8.70;;
74833;SDS011;63361;52.384;20.930;2024-03-25T06:15:41;20.30;;;8.60;;
74833;SDS011;63361;52.384;20.930;2024-03-25T06:18:07;17.27;;;8.57;;
74833;SDS011;63361;52.384;20.930;2024-03-25T06:20:32;21.53;;;10.10;;
74833;SDS011;63361;52.384;20.930;2024-03-25T06:22:57;21.00;;;10.67;;
74833;SDS011;63361;52.384;20.930;2024-03-25T06:25:23;20.27;;;9.87;;
74833;SDS011;63361;52.384;20.930;2024-03-25T06:27:48;26.40;;;10.65;;
74833;SDS011;63361;52.384;20.930;2024-03-25T06:30:14;23.93;;;12.03;;
74833;SDS011;63361;52.384;20.930;2024-03-25T06:32:58;18.35;;;9.63;;
74833;SDS011;63361;52.384;20.930;2024-03-25T06:35:42;23.03;;;10.30;;
74833;SDS011;63361;52.384;20.930;2024-03-25T06:38:08;25.17;;;12.02;;
74833;SDS011;63361;52.384;20.930;2024-03-25T06:40:33;19.17;;;9.27;;
74833;SDS011;63361;52.384;20.930;2024-03-25T06:42:59;18.40;;;8.70;;
74833;SDS011;63361;52.384;20.930;2024-03-25T06:45:24;16.17;;;7.60;;
74833;SDS011;63361;52.384;20.930;2024-03-25T06:47:49;14.10;;;6.90;;
74833;SDS011;63361;52.384;20.930;2024-03-25T06:50:15;15.07;;;7.50;;
74833;SDS011;63361;52.384;20.930;2024-03-25T06:52:40;17.00;;;8.53;;
74833;SDS011;63361;52.384;20.930;2024-03-25T06:55:06;17.30;;;8.05;;
74833;SDS011;63361;52.384;20.930;2024-03-25T06:57:33;18.70;;;8.60;;
74833;SDS011;63361;52.384;20.930;2024-03-25T06:59:58;16.88;;;7.90;;
74833;SDS011;63361;52.384;20.930;2024-03-25T07:02:24;34.30;;;15.13;;
74833;SDS011;63361;52.384;20.930;2024-03-25T07:04:49;24.97;;;9.30;;
74833;SDS011;63361;52.384;20.930;2024-03-25T07:07:15;18.53;;;8.47;;
74833;SDS011;63361;52.384;20.930;2024-03-25T07:09:40;13.57;;;6.47;;
74833;SDS011;63361;52.384;20.930;2024-03-25T07:12:06;13.03;;;6.27;;
74833;SDS011;63361;52.384;20.930;2024-03-25T07:14:32;16.92;;;7.80;;
74833;SDS011;63361;52.384;20.930;2024-03-25T07:16:57;15.07;;;6.97;;
74833;SDS011;63361;52.384;20.930;2024-03-25T07:19:22;13.33;;;5.87;;
74833;SDS011;63361;52.384;20.930;2024-03-25T07:21:48;12.20;;;6.00;;
74833;SDS011;63361;52.384;20.930;2024-03-25T07:24:13;13.23;;;5.60;;
74833;SDS011;63361;52.384;20.930;2024-03-25T07:26:38;13.17;;;6.50;;
74833;SDS011;63361;52.384;20.930;2024-03-25T07:29:04;12.23;;;5.90;;
74833;SDS011;63361;52.384;20.930;2024-03-25T07:31:29;12.63;;;5.40;;
74833;SDS011;63361;52.384;20.930;2024-03-25T07:33:55;11.77;;;6.33;;
74833;SDS011;63361;52.384;20.930;2024-03-25T07:36:20;9.90;;;5.40;;
74833;SDS011;63361;52.384;20.930;2024-03-25T07:38:45;14.00;;;5.70;;
74833;SDS011;63361;52.384;20.930;2024-03-25T07:41:11;12.07;;;6.17;;
74833;SDS011;63361;52.384;20.930;2024-03-25T07:43:36;10.20;;;5.30;;
74833;SDS011;63361;52.384;20.930;2024-03-25T07:46:01;14.03;;;5.87;;
74833;SDS011;63361;52.384;20.930;2024-03-25T07:48:27;11.32;;;5.35;;
74833;SDS011;63361;52.384;20.930;2024-03-25T07:50:52;12.40;;;5.37;;
74833;SDS011;63361;52.384;20.930;2024-03-25T07:53:17;13.20;;;5.80;;
74833;SDS011;63361;52.384;20.930;2024-03-25T07:55:43;9.17;;;5.43;;
74833;SDS011;63361;52.384;20.930;2024-03-25T07:58:08;10.30;;;4.70;;
74833;SDS011;63361;52.384;20.930;2024-03-25T08:00:34;12.07;;;4.82;;
74833;SDS011;63361;52.384;20.930;2024-03-25T08:02:59;11.97;;;5.47;;
74833;SDS011;63361;52.384;20.930;2024-03-25T08:05:26;9.23;;;5.50;;
74833;SDS011;63361;52.384;20.930;2024-03-25T08:07:54;9.17;;;5.10;;
74833;SDS011;63361;52.384;20.930;2024-03-25T08:10:19;10.35;;;5.60;;
74833;SDS011;63361;52.384;20.930;2024-03-25T08:12:45;34.77;;;11.97;;
74833;SDS011;63361;52.384;20.930;2024-03-25T08:15:10;98.40;;;26.83;;
74833;SDS011;63361;52.384;20.930;2024-03-25T08:17:35;11.63;;;6.07;;
74833;SDS011;63361;52.384;20.930;2024-03-25T08:20:01;12.17;;;5.40;;
74833;SDS011;63361;52.384;20.930;2024-03-25T08:22:26;12.30;;;6.00;;
74833;SDS011;63361;52.384;20.930;2024-03-25T08:24:51;11.80;;;6.40;;
74833;SDS011;63361;52.384;20.930;2024-03-25T08:27:17;10.25;;;5.03;;
74833;SDS011;63361;52.384;20.930;2024-03-25T08:29:42;9.93;;;5.23;;
74833;SDS011;63361;52.384;20.930;2024-03-25T08:32:08;8.60;;;4.57;;
74833;SDS011;63361;52.384;20.930;2024-03-25T08:34:33;7.63;;;4.10;;
74833;SDS011;63361;52.384;20.930;2024-03-25T08:36:58;9.40;;;5.27;;
74833;SDS011;63361;52.384;20.930;2024-03-25T08:39:24;9.20;;;4.30;;
74833;SDS011;63361;52.384;20.930;2024-03-25T08:41:49;8.67;;;4.20;;
74833;SDS011;63361;52.384;20.930;2024-03-25T08:44:15;8.70;;;3.90;;
74833;SDS011;63361;52.384;20.930;2024-03-25T08:46:40;7.53;;;4.17;;
74833;SDS011;63361;52.384;20.930;2024-03-25T08:49:06;8.57;;;4.10;;
74833;SDS011;63361;52.384;20.930;2024-03-25T08:51:31;8.43;;;3.97;;
74833;SDS011;63361;52.384;20.930;2024-03-25T08:53:57;11.47;;;4.27;;
74833;SDS011;63361;52.384;20.930;2024-03-25T08:56:22;11.17;;;4.50;;
74833;SDS011;63361;52.384;20.930;2024-03-25T08:58:47;10.03;;;5.43;;
74833;SDS011;63361;52.384;20.930;2024-03-25T09:01:13;8.98;;;4.57;;
74833;SDS011;63361;52.384;20.930;2024-03-25T09:03:41;8.03;;;4.53;;
74833;SDS011;63361;52.384;20.930;2024-03-25T09:06:06;8.73;;;3.70;;
74833;SDS011;63361;52.384;20.930;2024-03-25T09:08:32;7.07;;;3.33;;
74833;SDS011;63361;52.384;20.930;2024-03-25T09:11:18;6.75;;;3.30;;
74833;SDS011;63361;52.384;20.930;2024-03-25T09:13:43;7.07;;;3.03;;
74833;SDS011;63361;52.384;20.930;2024-03-25T09:16:09;7.73;;;3.43;;
74833;SDS011;63361;52.384;20.930;2024-03-25T09:18:34;10.07;;;3.37;;
74833;SDS011;63361;52.384;20.930;2024-03-25T09:21:00;5.33;;;2.50;;
74833;SDS011;63361;52.384;20.930;2024-03-25T09:23:25;7.43;;;3.25;;
74833;SDS011;63361;52.384;20.930;2024-03-25T09:25:51;5.70;;;2.90;;
74833;SDS011;63361;52.384;20.930;2024-03-25T09:28:17;6.05;;;2.63;;
74833;SDS011;63361;52.384;20.930;2024-03-25T09:30:43;4.43;;;2.47;;
74833;SDS011;63361;52.384;20.930;2024-03-25T09:33:08;5.70;;;2.20;;
74833;SDS011;63361;52.384;20.930;2024-03-25T09:35:34;7.30;;;2.60;;
74833;SDS011;63361;52.384;20.930;2024-03-25T09:37:59;6.13;;;2.70;;
74833;SDS011;63361;52.384;20.930;2024-03-25T09:40:24;5.03;;;2.43;;
74833;SDS011;63361;52.384;20.930;2024-03-25T09:42:56;6.90;;;2.80;;
74833;SDS011;63361;52.384;20.930;2024-03-25T09:45:24;6.10;;;2.10;;
74833;SDS011;63361;52.384;20.930;2024-03-25T09:47:50;7.47;;;2.58;;
74833;SDS011;63361;52.384;20.930;2024-03-25T09:50:16;5.75;;;2.97;;
74833;SDS011;63361;52.384;20.930;2024-03-25T09:52:47;6.80;;;3.00;;
74833;SDS011;63361;52.384;20.930;2024-03-25T09:55:16;7.93;;;3.30;;
74833;SDS011;63361;52.384;20.930;2024-03-25T09:57:42;5.55;;;2.90;;
74833;SDS011;63361;52.384;20.930;2024-03-25T10:00:08;8.52;;;3.70;;
74833;SDS011;63361;52.384;20.930;2024-03-25T10:02:36;9.90;;;3.50;;
74833;SDS011;63361;52.384;20.930;2024-03-25T10:05:05;9.65;;;2.88;;
74833;SDS011;63361;52.384;20.930;2024-03-25T10:07:31;7.30;;;2.50;;
74833;SDS011;63361;52.384;20.930;2024-03-25T10:09:57;4.93;;;2.33;;
74833;SDS011;63361;52.384;20.930;2024-03-25T10:12:23;7.93;;;2.80;;
74833;SDS011;63361;52.384;20.930;2024-03-25T10:14:49;5.33;;;2.40;;
74833;SDS011;63361;52.384;20.930;2024-03-25T10:17:15;4.70;;;2.33;;
74833;SDS011;63361;52.384;20.930;2024-03-25T10:19:40;5.70;;;2.40;;
74833;SDS011;63361;52.384;20.930;2024-03-25T10:22:07;6.68;;;2.50;;
74833;SDS011;63361;52.384;20.930;2024-03-25T10:24:36;6.00;;;2.47;;
74833;SDS011;63361;52.384;20.930;2024-03-25T10:29:48;6.45;;;3.00;;
74833;SDS011;63361;52.384;20.930;2024-03-25T10:32:17;7.70;;;2.78;;
74833;SDS011;63361;52.384;20.930;2024-03-25T10:34:42;6.50;;;2.57;;
74833;SDS011;63361;52.384;20.930;2024-03-25T10:37:09;6.80;;;2.58;;
74833;SDS011;63361;52.384;20.930;2024-03-25T10:39:38;5.63;;;3.00;;
74833;SDS011;63361;52.384;20.930;2024-03-25T10:42:13;5.30;;;2.50;;
74833;SDS011;63361;52.384;20.930;2024-03-25T10:44:43;5.27;;;2.60;;
74833;SDS011;63361;52.384;20.930;2024-03-25T10:47:09;6.15;;;2.67;;
74833;SDS011;63361;52.384;20.930;2024-03-25T10:49:48;5.53;;;2.20;;
74833;SDS011;63361;52.384;20.930;2024-03-25T10:52:24;6.20;;;2.40;;
74833;SDS011;63361;52.384;20.930;2024-03-25T10:54:51;5.93;;;2.78;;
74833;SDS011;63361;52.384;20.930;2024-03-25T10:57:16;8.00;;;2.50;;
74833;SDS011;63361;52.384;20.930;2024-03-25T10:59:43;6.35;;;2.88;;
74833;SDS011;63361;52.384;20.930;2024-03-25T11:02:10;5.73;;;2.57;;
74833;SDS011;63361;52.384;20.930;2024-03-25T11:04:36;5.18;;;3.00;;
74833;SDS011;63361;52.384;20.930;2024-03-25T11:07:12;9.25;;;2.60;;
74833;SDS011;63361;52.384;20.930;2024-03-25T11:09:39;5.28;;;2.40;;
74833;SDS011;63361;52.384;20.930;2024-03-25T11:12:05;7.75;;;3.15;;
74833;SDS011;63361;52.384;20.930;2024-03-25T11:14:31;8.83;;;2.93;;
74833;SDS011;63361;52.384;20.930;2024-03-25T11:16:57;5.57;;;2.60;;
74833;SDS011;63361;52.384;20.930;2024-03-25T11:19:27;5.75;;;2.53;;
74833;SDS011;63361;52.384;20.930;2024-03-25T11:21:54;5.13;;;2.40;;
74833;SDS011;63361;52.384;20.930;2024-03-25T11:24:30;5.82;;;2.10;;
74833;SDS011;63361;52.384;20.930;2024-03-25T11:26:56;4.53;;;2.43;;
74833;SDS011;63361;52.384;20.930;2024-03-25T11:29:21;4.13;;;1.90;;
74833;SDS011;63361;52.384;20.930;2024-03-25T11:31:49;4.90;;;2.17;;
74833;SDS011;63361;52.384;20.930;2024-03-25T11:34:15;5.22;;;2.50;;
74833;SDS011;63361;52.384;20.930;2024-03-25T11:36:40;5.80;;;2.40;;
74833;SDS011;63361;52.384;20.930;2024-03-25T11:39:06;5.05;;;2.35;;
74833;SDS011;63361;52.384;20.930;2024-03-25T11:41:35;5.85;;;2.50;;
74833;SDS011;63361;52.384;20.930;2024-03-25T11:44:04;6.30;;;3.10;;
74833;SDS011;63361;52.384;20.930;2024-03-25T11:46:30;5.68;;;3.00;;
74833;SDS011;63361;52.384;20.930;2024-03-25T11:48:55;6.40;;;2.93;;
74833;SDS011;63361;52.384;20.930;2024-03-25T11:51:21;6.17;;;3.17;;
74833;SDS011;63361;52.384;20.930;2024-03-25T11:53:46;5.80;;;2.88;;
74833;SDS011;63361;52.384;20.930;2024-03-25T11:56:12;8.00;;;3.10;;
74833;SDS011;63361;52.384;20.930;2024-03-25T11:58:39;7.53;;;3.55;;
74833;SDS011;63361;52.384;20.930;2024-03-25T12:01:04;6.05;;;3.08;;
74833;SDS011;63361;52.384;20.930;2024-03-25T12:03:30;6.90;;;3.00;;
74833;SDS011;63361;52.384;20.930;2024-03-25T12:05:56;7.17;;;3.00;;
74833;SDS011;63361;52.384;20.930;2024-03-25T12:08:22;7.20;;;2.22;;
74833;SDS011;63361;52.384;20.930;2024-03-25T12:10:51;5.57;;;2.30;;
74833;SDS011;63361;52.384;20.930;2024-03-25T12:13:37;6.70;;;2.30;;
74833;SDS011;63361;52.384;20.930;2024-03-25T12:16:06;6.65;;;2.70;;
74833;SDS011;63361;52.384;20.930;2024-03-25T12:18:33;5.67;;;2.60;;
74833;SDS011;63361;52.384;20.930;2024-03-25T12:21:00;7.85;;;2.22;;
74833;SDS011;63361;52.384;20.930;2024-03-25T12:23:30;5.05;;;2.42;;
74833;SDS011;63361;52.384;20.930;2024-03-25T12:25:58;5.38;;;2.53;;
74833;SDS011;63361;52.384;20.930;2024-03-25T12:28:24;6.25;;;2.85;;
74833;SDS011;63361;52.384;20.930;2024-03-25T12:30:50;6.63;;;2.40;;
74833;SDS011;63361;52.384;20.930;2024-03-25T12:33:17;7.43;;;2.92;;
74833;SDS011;63361;52.384;20.930;2024-03-25T12:35:46;5.17;;;2.37;;
74833;SDS011;63361;52.384;20.930;2024-03-25T12:38:22;5.43;;;3.00;;
74833;SDS011;63361;52.384;20.930;2024-03-25T12:40:47;6.32;;;2.75;;
74833;SDS011;63361;52.384;20.930;2024-03-25T12:43:16;6.60;;;3.20;;
74833;SDS011;63361;52.384;20.930;2024-03-25T12:45:42;5.97;;;2.92;;
74833;SDS011;63361;52.384;20.930;2024-03-25T12:48:08;6.30;;;3.03;;
74833;SDS011;63361;52.384;20.930;2024-03-25T12:50:36;7.13;;;3.20;;
74833;SDS011;63361;52.384;20.930;2024-03-25T12:53:02;5.88;;;3.05;;
74833;SDS011;63361;52.384;20.930;2024-03-25T12:55:30;5.38;;;2.85;;
74833;SDS011;63361;52.384;20.930;2024-03-25T12:57:56;5.80;;;2.87;;
74833;SDS011;63361;52.384;20.930;2024-03-25T13:00:21;7.90;;;3.53;;
74833;SDS011;63361;52.384;20.930;2024-03-25T13:02:47;6.70;;;2.87;;
74833;SDS011;63361;52.384;20.930;2024-03-25T13:05:13;6.45;;;3.17;;
74833;SDS011;63361;52.384;20.930;2024-03-25T13:07:38;5.60;;;2.90;;
74833;SDS011;63361;52.384;20.930;2024-03-25T13:10:03;7.73;;;3.90;;
74833;SDS011;63361;52.384;20.930;2024-03-25T13:12:30;7.10;;;3.70;;
74833;SDS011;63361;52.384;20.930;2024-03-25T13:14:55;9.63;;;4.55;;
74833;SDS011;63361;52.384;20.930;2024-03-25T13:17:22;9.27;;;5.20;;
74833;SDS011;63361;52.384;20.930;2024-03-25T13:19:47;8.77;;;5.03;;
74833;SDS011;63361;52.384;20.930;2024-03-25T13:22:13;8.43;;;5.13;;
74833;SDS011;63361;52.384;20.930;2024-03-25T13:24:38;9.27;;;5.33;;
74833;SDS011;63361;52.384;20.930;2024-03-25T13:27:03;7.37;;;4.87;;
74833;SDS011;63361;52.384;20.930;2024-03-25T13:29:29;8.45;;;4.78;;
74833;SDS011;63361;52.384;20.930;2024-03-25T13:31:54;8.60;;;5.40;;
74833;SDS011;63361;52.384;20.930;2024-03-25T13:34:20;9.80;;;4.53;;
74833;SDS011;63361;52.384;20.930;2024-03-25T13:36:45;8.90;;;4.90;;
74833;SDS011;63361;52.384;20.930;2024-03-25T13:39:10;8.83;;;4.50;;
74833;SDS011;63361;52.384;20.930;2024-03-25T13:41:36;8.83;;;4.30;;
74833;SDS011;63361;52.384;20.930;2024-03-25T13:44:01;9.27;;;5.10;;
74833;SDS011;63361;52.384;20.930;2024-03-25T13:46:26;10.80;;;5.95;;
74833;SDS011;63361;52.384;20.930;2024-03-25T13:48:52;9.23;;;4.80;;
74833;SDS011;63361;52.384;20.930;2024-03-25T13:51:17;8.60;;;5.00;;
74833;SDS011;63361;52.384;20.930;2024-03-25T13:53:43;7.70;;;4.50;;
74833;SDS011;63361;52.384;20.930;2024-03-25T13:56:08;8.03;;;4.87;;
74833;SDS011;63361;52.384;20.930;2024-03-25T13:58:33;6.95;;;4.30;;
74833;SDS011;63361;52.384;20.930;2024-03-25T14:00:59;7.23;;;4.23;;
74833;SDS011;63361;52.384;20.930;2024-03-25T14:03:25;8.40;;;4.88;;
74833;SDS011;63361;52.384;20.930;2024-03-25T14:05:51;9.70;;;5.00;;
74833;SDS011;63361;52.384;20.930;2024-03-25T14:08:17;10.00;;;5.82;;
74833;SDS011;63361;52.384;20.930;2024-03-25T14:10:43;6.97;;;4.57;;
74833;SDS011;63361;52.384;20.930;2024-03-25T14:13:08;7.10;;;4.60;;
74833;SDS011;63361;52.384;20.930;2024-03-25T14:15:34;6.65;;;4.32;;
74833;SDS011;63361;52.384;20.930;2024-03-25T14:17:59;8.53;;;4.80;;
74833;SDS011;63361;52.384;20.930;2024-03-25T14:20:25;7.47;;;4.07;;
74833;SDS011;63361;52.384;20.930;2024-03-25T14:22:50;5.00;;;3.10;;
74833;SDS011;63361;52.384;20.930;2024-03-25T14:25:15;5.60;;;3.13;;